Time;durP1;ratioP1;P1;durP2;ratioP2;P2;SDS_P1;SDS_P2;PMS_P1;PMS_P2;Temp;Humidity;BMP_temperature;BMP_pressure;BME280_temperature;BME280_humidity;BME280_pressure;Samples;Min_cycle;Max_cycle;Signal;HPM_P1;HPM_P2
2021/05/21 00:00:33;;;;;;;8.30;6.07;;;;;;;12.27;84.48;100008.61;1773434;80;21370;-69
2021/05/21 00:03:04;;;;;;;11.10;6.47;;;;;;;12.20;84.59;100002.25;1795021;78;21869;-69
2021/05/21 00:05:30;;;;;;;9.57;6.70;;;;;;;12.13;84.71;100012.48;1812179;78;21978;-69
2021/05/21 00:07:57;;;;;;;9.67;6.50;;;;;;;12.08;84.89;100012.55;1811781;77;21157;-69
2021/05/21 00:10:24;;;;;;;11.27;7.17;;;;;;;12.04;85.04;100014.70;1811188;77;21316;-68
2021/05/21 00:12:53;;;;;;;8.73;6.33;;;;;;;12.01;85.18;100011.23;1799778;77;21856;-69
2021/05/21 00:15:20;;;;;;;9.80;7.13;;;;;;;11.99;85.29;100015.55;1813200;78;21320;-69
2021/05/21 00:17:47;;;;;;;13.17;7.40;;;;;;;11.96;85.46;100028.15;1802091;77;21298;-69
2021/05/21 00:20:16;;;;;;;9.20;6.70;;;;;;;11.94;85.67;100027.10;1803608;77;21353;-69
2021/05/21 00:22:42;;;;;;;11.33;6.60;;;;;;;11.92;85.88;100035.94;1757024;80;21349;-70
2021/05/21 00:25:10;;;;;;;10.43;6.80;;;;;;;11.93;85.96;100031.38;1759211;80;21221;-69
2021/05/21 00:27:36;;;;;;;11.63;7.37;;;;;;;11.95;86.07;100027.90;1763057;80;21353;-69
2021/05/21 00:30:05;;;;;;;10.40;6.67;;;;;;;11.97;86.11;100033.75;1758235;80;21316;-69
2021/05/21 00:32:32;;;;;;;9.53;6.20;;;;;;;12.00;86.13;100041.23;1757025;80;21327;-69
2021/05/21 00:34:58;;;;;;;8.77;6.63;;;;;;;12.00;86.09;100043.11;1808634;77;21344;-69
2021/05/21 00:37:27;;;;;;;10.70;6.13;;;;;;;12.00;86.13;100049.26;1811194;77;21140;-70
2021/05/21 00:39:54;;;;;;;11.47;6.07;;;;;;;12.01;86.13;100050.05;1795188;78;21304;-69
2021/05/21 00:42:20;;;;;;;10.23;5.70;;;;;;;11.97;86.13;100049.27;1786824;78;21107;-69
2021/05/21 00:44:56;;;;;;;8.97;6.17;;;;;;;11.95;86.12;100050.65;1791491;78;21109;-69
2021/05/21 00:47:23;;;;;;;9.20;5.70;;;;;;;11.91;86.00;100050.41;1782587;79;21534;-69
2021/05/21 00:49:51;;;;;;;10.73;6.20;;;;;;;11.88;85.82;100059.53;1804553;78;21229;-69
2021/05/21 00:52:18;;;;;;;10.93;6.20;;;;;;;11.86;85.60;100051.77;1780982;78;21315;-69
2021/05/21 00:54:45;;;;;;;11.60;6.33;;;;;;;11.83;85.39;100060.31;1813268;78;21189;-68
2021/05/21 00:57:12;;;;;;;11.13;5.60;;;;;;;11.80;85.21;100061.41;1797031;78;21260;-68
2021/05/21 00:59:41;;;;;;;8.83;5.80;;;;;;;11.76;84.99;100062.50;1797633;78;21322;-68
2021/05/21 01:02:08;;;;;;;10.77;6.13;;;;;;;11.72;84.73;100060.13;1796491;78;21377;-69
2021/05/21 01:04:36;;;;;;;11.70;6.27;;;;;;;11.68;84.50;100065.74;1799975;78;21344;-68
2021/05/21 01:07:04;;;;;;;11.60;6.53;;;;;;;11.62;84.31;100066.88;1798809;78;22595;-69
2021/05/21 01:09:32;;;;;;;10.57;7.50;;;;;;;11.59;84.19;100071.43;1795094;78;21346;-69
2021/05/21 01:12:01;;;;;;;10.13;6.57;;;;;;;11.55;84.06;100067.17;1797228;79;21374;-69
2021/05/21 01:14:29;;;;;;;10.57;6.70;;;;;;;11.49;83.97;100069.06;1796114;78;21833;-69
2021/05/21 01:16:58;;;;;;;11.40;6.73;;;;;;;11.48;83.93;100070.14;1793897;79;21159;-69
2021/05/21 01:19:25;;;;;;;11.50;6.70;;;;;;;11.44;83.85;100078.97;1796251;78;21416;-68
2021/05/21 01:21:52;;;;;;;11.17;7.27;;;;;;;11.43;83.75;100078.18;1796968;78;21354;-68
2021/05/21 01:24:20;;;;;;;11.27;8.03;;;;;;;11.41;83.71;100080.31;1798115;79;21094;-68
2021/05/21 01:26:47;;;;;;;10.23;8.00;;;;;;;11.37;83.69;100076.59;1788815;79;21355;-69
2021/05/21 01:29:14;;;;;;;13.90;8.70;;;;;;;11.36;83.63;100079.55;1797097;78;21845;-69
2021/05/21 01:31:43;;;;;;;14.37;9.63;;;;;;;11.32;83.61;100080.64;1793721;78;21364;-69
2021/05/21 01:34:10;;;;;;;12.80;9.27;;;;;;;11.31;83.62;100080.90;1798133;78;21065;-69
2021/05/21 01:36:37;;;;;;;12.97;8.97;;;;;;;11.30;83.57;100078.77;1797529;78;21230;-70
2021/05/21 01:39:10;;;;;;;13.08;8.90;;;;;;;11.29;83.56;100083.86;1794877;78;21374;-69
2021/05/21 01:41:37;;;;;;;11.73;9.07;;;;;;;11.29;83.52;100083.86;1791524;78;21619;-69
2021/05/21 01:44:06;;;;;;;13.00;8.77;;;;;;;11.27;83.55;100089.47;1797987;78;21590;-69
2021/05/21 01:46:34;;;;;;;13.00;8.57;;;;;;;11.25;83.55;100084.95;1795713;78;21494;-69
2021/05/21 01:49:01;;;;;;;12.10;9.10;;;;;;;11.23;83.53;100092.97;1799317;78;21667;-68
2021/05/21 01:51:28;;;;;;;11.40;8.87;;;;;;;11.23;83.57;100095.64;1796880;78;21217;-69
2021/05/21 01:54:15;;;;;;;13.50;8.80;;;;;;;11.20;83.68;100100.19;1795943;78;21700;-69
2021/05/21 01:56:43;;;;;;;11.50;8.20;;;;;;;11.17;83.90;100106.08;1798152;78;21040;-69
2021/05/21 01:59:10;;;;;;;12.85;7.80;;;;;;;11.14;84.14;100107.95;1800208;78;21314;-70
2021/05/21 02:01:37;;;;;;;12.40;7.67;;;;;;;11.09;84.27;100105.28;1797489;78;21753;-70
2021/05/21 02:04:04;;;;;;;11.83;8.48;;;;;;;11.05;84.39;100109.03;1797206;78;21093;-69
2021/05/21 02:06:37;;;;;;;12.10;7.97;;;;;;;11.03;84.55;100109.32;1800762;78;21680;-69
2021/05/21 02:09:08;;;;;;;15.28;8.15;;;;;;;10.99;84.75;100111.45;1797738;78;22651;-68
2021/05/21 02:11:36;;;;;;;10.98;7.50;;;;;;;10.96;84.94;100113.35;1799053;78;21128;-69
2021/05/21 02:14:04;;;;;;;11.80;8.15;;;;;;;10.93;85.13;100110.67;1790555;78;21049;-69
2021/05/21 02:16:32;;;;;;;10.53;7.45;;;;;;;10.89;85.29;100116.30;1794352;78;21061;-68
2021/05/21 02:19:00;;;;;;;9.43;7.35;;;;;;;10.86;85.45;100114.16;1793797;78;21074;-70
2021/05/21 02:21:32;;;;;;;8.78;7.08;;;;;;;10.84;85.59;100107.48;1796764;78;21768;-67
2021/05/21 02:24:05;;;;;;;9.75;6.78;;;;;;;10.81;85.74;100106.14;1795389;78;21116;-68
2021/05/21 02:26:33;;;;;;;8.30;6.27;;;;;;;10.78;85.92;100110.15;1798852;78;21152;-68
2021/05/21 02:29:00;;;;;;;9.45;6.20;;;;;;;10.76;86.05;100110.17;1799950;78;21822;-69
2021/05/21 02:31:30;;;;;;;9.38;5.95;;;;;;;10.75;86.14;100110.68;1799168;78;21613;-69
2021/05/21 02:33:57;;;;;;;9.63;6.33;;;;;;;10.75;86.23;100109.89;1796738;78;21113;-69
2021/05/21 02:36:23;;;;;;;8.65;6.17;;;;;;;10.75;86.25;100105.34;1797896;78;21559;-70
2021/05/21 02:38:50;;;;;;;8.20;5.70;;;;;;;10.78;86.31;100112.81;1794340;78;21069;-70
2021/05/21 02:41:16;;;;;;;8.00;5.80;;;;;;;10.82;86.34;100112.28;1788453;78;20986;-69
2021/05/21 02:43:43;;;;;;;9.13;5.78;;;;;;;10.83;86.33;100113.37;1793926;78;21101;-69
2021/05/21 02:46:10;;;;;;;7.87;5.10;;;;;;;10.86;86.29;100112.83;1794981;78;21842;-69
2021/05/21 02:48:36;;;;;;;8.93;5.25;;;;;;;10.88;86.25;100120.56;1805242;77;21126;-69
2021/05/21 02:51:05;;;;;;;6.85;4.62;;;;;;;10.90;86.24;100123.23;1804133;77;21039;-69
2021/05/21 02:53:32;;;;;;;7.03;4.70;;;;;;;10.94;86.14;100120.28;1808937;78;22398;-69
2021/05/21 02:55:58;;;;;;;8.57;4.97;;;;;;;10.99;86.03;100124.81;1793283;78;21067;-70
2021/05/21 02:58:25;;;;;;;6.58;4.50;;;;;;;11.03;85.87;100121.34;1783761;78;21435;-70
2021/05/21 03:00:51;;;;;;;5.73;4.33;;;;;;;11.10;85.74;100124.28;1799543;78;21040;-68
2021/05/21 03:03:18;;;;;;;8.07;5.03;;;;;;;11.14;85.57;100128.00;1798853;78;21661;-69
2021/05/21 03:05:45;;;;;;;8.93;4.70;;;;;;;11.21;85.45;100133.86;1788982;78;21375;-68
2021/05/21 03:08:12;;;;;;;8.37;4.63;;;;;;;11.26;85.20;100130.64;1793198;78;21448;-69
2021/05/21 03:10:39;;;;;;;6.00;4.17;;;;;;;11.31;85.02;100134.38;1797142;78;22072;-69
2021/05/21 03:13:06;;;;;;;6.27;4.20;;;;;;;11.36;84.78;100143.19;1798948;78;21457;-68
2021/05/21 03:15:32;;;;;;;7.67;4.23;;;;;;;11.41;84.61;100143.70;1797995;78;21231;-69
2021/05/21 03:17:59;;;;;;;6.47;3.87;;;;;;;11.47;84.33;100150.63;1798414;78;21356;-67
2021/05/21 03:20:27;;;;;;;5.27;3.87;;;;;;;11.50;84.05;100151.43;1790599;78;21922;-69
2021/05/21 03:22:54;;;;;;;7.63;4.57;;;;;;;11.54;83.80;100146.33;1795816;78;21406;-70
2021/05/21 03:25:22;;;;;;;7.40;4.20;;;;;;;11.61;83.59;100144.16;1793948;78;21320;-68
2021/05/21 03:27:49;;;;;;;6.23;3.70;;;;;;;11.67;83.28;100152.44;1806175;77;21233;-69
2021/05/21 03:30:17;;;;;;;8.00;3.90;;;;;;;11.73;82.92;100151.34;1794002;78;21722;-69
2021/05/21 03:32:44;;;;;;;6.00;3.57;;;;;;;11.78;82.47;100159.36;1796982;79;37357;-69
2021/05/21 03:35:11;;;;;;;6.97;3.90;;;;;;;11.81;82.01;100158.78;1790888;78;22034;-69
2021/05/21 03:37:39;;;;;;;4.83;3.70;;;;;;;11.85;81.52;100159.09;1793602;78;21289;-69
2021/05/21 03:40:06;;;;;;;5.87;3.50;;;;;;;11.89;80.97;100159.59;1794479;79;21871;-69
2021/05/21 03:42:34;;;;;;;4.77;3.07;;;;;;;11.93;80.66;100163.86;1799916;78;21221;-69
2021/05/21 03:45:00;;;;;;;5.60;3.53;;;;;;;11.96;80.22;100164.65;1795134;78;21354;-68
2021/05/21 03:47:27;;;;;;;4.30;3.30;;;;;;;11.99;79.97;100169.99;1795521;78;21297;-69
2021/05/21 03:49:55;;;;;;;5.13;3.07;;;;;;;12.06;79.71;100179.86;1779188;79;21229;-69
2021/05/21 03:52:22;;;;;;;5.70;3.43;;;;;;;12.11;79.50;100174.45;1810805;79;21449;-69
2021/05/21 03:54:48;;;;;;;6.10;3.40;;;;;;;12.17;79.16;100172.02;1793048;78;21763;-68
2021/05/21 03:57:15;;;;;;;4.63;3.40;;;;;;;12.25;79.13;100175.47;1794143;78;21083;-70
2021/05/21 03:59:41;;;;;;;5.20;3.40;;;;;;;12.32;79.02;100173.27;1803307;78;21985;-68
2021/05/21 04:02:11;;;;;;;5.77;3.27;;;;;;;12.42;78.77;100176.43;1796346;78;21452;-68
2021/05/21 04:04:38;;;;;;;4.70;3.40;;;;;;;12.48;78.57;100173.98;1769290;78;21256;-69
2021/05/21 04:07:06;;;;;;;6.47;3.57;;;;;;;12.55;78.44;100178.48;1799665;78;21533;-69
2021/05/21 04:09:34;;;;;;;4.97;3.40;;;;;;;12.61;78.18;100184.06;1801745;78;22065;-68
2021/05/21 04:12:02;;;;;;;6.03;3.90;;;;;;;12.68;77.73;100182.41;1796827;78;21900;-69
2021/05/21 04:14:30;;;;;;;6.70;4.17;;;;;;;12.74;77.41;100184.52;1790588;78;21315;-68
2021/05/21 04:16:56;;;;;;;12.87;6.27;;;;;;;12.80;77.28;100184.19;1798929;78;21138;-70
2021/05/21 04:19:23;;;;;;;9.83;5.83;;;;;;;12.90;76.79;100185.45;1792056;78;21297;-68
2021/05/21 04:21:50;;;;;;;14.03;6.70;;;;;;;12.98;76.34;100187.26;1769859;79;21871;-69
2021/05/21 04:24:17;;;;;;;14.13;7.87;;;;;;;13.03;75.62;100182.66;1797416;78;21846;-68
2021/05/21 04:26:45;;;;;;;16.97;8.33;;;;;;;13.12;75.19;100177.46;1798288;78;21365;-69
2021/05/21 04:29:12;;;;;;;15.10;7.83;;;;;;;13.20;74.58;100177.41;1794241;78;21354;-70
2021/05/21 04:31:38;;;;;;;14.03;7.30;;;;;;;13.27;74.22;100184.06;1796861;78;21266;-70
2021/05/21 04:34:05;;;;;;;11.53;7.23;;;;;;;13.34;73.40;100187.20;1799922;78;21272;-69
2021/05/21 04:36:32;;;;;;;12.07;6.53;;;;;;;13.41;72.91;100186.06;1798151;78;21868;-69
2021/05/21 04:38:59;;;;;;;13.77;6.47;;;;;;;13.47;72.72;100188.41;1798342;78;21515;-70
2021/05/21 04:41:26;;;;;;;12.63;6.20;;;;;;;13.56;72.70;100196.64;1798112;78;21259;-68
2021/05/21 04:43:54;;;;;;;13.90;6.40;;;;;;;13.69;72.20;100205.35;1796312;78;21302;-70
2021/05/21 04:46:20;;;;;;;13.23;5.50;;;;;;;13.78;71.30;100209.52;1809350;77;21364;-70
2021/05/21 04:48:47;;;;;;;13.83;5.20;;;;;;;13.84;70.79;100209.17;1792619;78;21404;-70
2021/05/21 04:51:15;;;;;;;10.83;4.57;;;;;;;13.89;69.76;100220.97;1795528;78;21438;-69
2021/05/21 04:53:42;;;;;;;9.57;4.70;;;;;;;13.90;69.10;100210.47;1795514;78;21918;-69
2021/05/21 04:56:11;;;;;;;12.07;5.17;;;;;;;13.95;69.32;100213.08;1792875;78;21519;-68
2021/05/21 04:58:38;;;;;;;10.87;4.10;;;;;;;14.02;69.48;100213.00;1796663;78;21393;-70
2021/05/21 05:01:05;;;;;;;10.90;4.13;;;;;;;14.15;69.52;100221.41;1798175;78;21537;-70
2021/05/21 05:03:31;;;;;;;4.93;2.30;;;;;;;14.25;68.49;100219.97;1798906;78;21503;-69
2021/05/21 05:05:59;;;;;;;7.63;2.90;;;;;;;14.25;65.98;100230.16;1807832;78;21500;-69
2021/05/21 05:08:27;;;;;;;4.83;2.50;;;;;;;14.31;65.64;100235.72;1792921;78;21493;-69
2021/05/21 05:10:54;;;;;;;4.67;2.00;;;;;;;14.31;65.64;100235.72;1798186;78;21540;-70
2021/05/21 05:13:21;;;;;;;5.43;1.80;;;;;;;14.31;65.14;100237.59;1794275;78;21767;-70
2021/05/21 05:15:48;;;;;;;5.37;1.90;;;;;;;14.32;64.60;100236.52;1797995;77;21698;-69
2021/05/21 05:18:15;;;;;;;2.77;1.40;;;;;;;14.40;64.42;100240.44;1797170;78;21682;-69
2021/05/21 05:20:45;;;;;;;3.67;1.63;;;;;;;14.45;63.66;100233.11;1797677;78;21501;-70
2021/05/21 05:23:12;;;;;;;2.30;1.40;;;;;;;14.62;62.18;100239.89;1794367;78;21757;-68
2021/05/21 05:25:42;;;;;;;2.40;1.60;;;;;;;14.61;61.00;100232.38;1799528;78;22283;-70
2021/05/21 05:28:11;;;;;;;4.30;1.70;;;;;;;14.61;61.00;100232.38;1790547;78;21690;-70
2021/05/21 05:30:39;;;;;;;2.73;1.53;;;;;;;14.69;60.57;100237.08;1794942;78;21745;-69
2021/05/21 05:33:06;;;;;;;2.63;1.50;;;;;;;14.69;60.51;100234.40;1798655;78;22276;-69
2021/05/21 05:35:34;;;;;;;3.40;1.27;;;;;;;14.69;60.51;100234.40;1799088;78;21720;-69
2021/05/21 05:38:01;;;;;;;3.23;1.50;;;;;;;14.74;60.45;100236.20;1798316;78;21819;-69
2021/05/21 05:40:30;;;;;;;2.13;1.20;;;;;;;14.80;59.84;100244.44;1795492;78;22214;-69
2021/05/21 05:42:58;;;;;;;2.80;1.37;;;;;;;14.87;58.91;100240.03;1790359;78;22239;-70
2021/05/21 05:45:25;;;;;;;1.70;1.20;;;;;;;14.99;58.60;100247.11;1791524;78;21725;-70
2021/05/21 05:47:51;;;;;;;2.90;1.30;;;;;;;14.99;58.60;100247.11;1796281;78;21796;-69
2021/05/21 05:50:18;;;;;;;1.70;1.33;;;;;;;15.06;58.34;100244.84;1788422;78;22347;-70
2021/05/21 05:52:45;;;;;;;2.67;1.30;;;;;;;15.10;57.88;100243.70;1801102;78;21794;-68
2021/05/21 05:55:14;;;;;;;4.10;1.50;;;;;;;15.10;57.74;100236.42;1799389;78;21733;-69
2021/05/21 05:57:41;;;;;;;2.70;1.40;;;;;;;15.19;58.11;100237.91;1797534;78;22436;-69
2021/05/21 06:00:11;;;;;;;3.03;1.37;;;;;;;15.33;57.84;100234.69;1796503;78;21705;-69
2021/05/21 06:02:37;;;;;;;2.73;1.37;;;;;;;15.46;57.35;100239.84;1792910;78;21737;-69
2021/05/21 06:05:06;;;;;;;3.60;1.60;;;;;;;15.56;57.55;100234.27;1798765;78;21749;-71
2021/05/21 06:07:33;;;;;;;5.13;1.70;;;;;;;15.73;56.91;100237.78;1798857;78;21711;-71
2021/05/21 06:10:00;;;;;;;2.20;1.30;;;;;;;15.81;55.91;100230.89;1792348;78;21743;-71
2021/05/21 06:12:26;;;;;;;3.40;1.50;;;;;;;15.87;55.77;100235.08;1795906;78;21752;-71
2021/05/21 06:14:53;;;;;;;3.40;1.50;;;;;;;15.99;55.82;100237.25;1796554;78;22326;-71
2021/05/21 06:17:21;;;;;;;2.57;1.33;;;;;;;16.05;53.87;100241.44;1797439;79;22766;-72
2021/05/21 06:19:48;;;;;;;8.60;2.00;;;;;;;16.05;53.87;100241.44;1794157;78;21085;-71
2021/05/21 06:22:15;;;;;;;5.13;1.60;;;;;;;16.12;53.52;100240.48;1815720;78;21101;-71
2021/05/21 06:24:45;;;;;;;3.50;1.30;;;;;;;16.22;53.12;100239.47;1799079;78;21037;-73
2021/05/21 06:27:18;;;;;;;3.20;1.20;;;;;;;16.34;51.86;100234.36;1810441;77;21891;-72
2021/05/21 06:29:44;;;;;;;4.90;1.20;;;;;;;16.42;52.09;100237.70;1790323;78;21043;-73
2021/05/21 06:32:11;;;;;;;6.57;1.70;;;;;;;16.50;51.39;100237.52;1794332;78;21579;-73
2021/05/21 06:34:38;;;;;;;3.23;1.30;;;;;;;16.52;51.40;100240.16;1774409;80;21083;-73
2021/05/21 06:37:06;;;;;;;2.37;1.20;;;;;;;16.48;50.81;100243.20;1796753;79;21562;-73
2021/05/21 06:39:32;;;;;;;5.23;1.67;;;;;;;16.47;50.25;100244.86;1803043;77;21107;-72
2021/05/21 06:41:59;;;;;;;5.93;1.67;;;;;;;16.44;50.41;100242.22;1819792;78;20983;-70
2021/05/21 06:44:27;;;;;;;5.73;2.17;;;;;;;16.42;51.09;100241.74;1812718;79;21634;-73
2021/05/21 06:46:58;;;;;;;4.63;1.63;;;;;;;16.50;50.82;100240.22;1813341;78;21618;-72
2021/05/21 06:49:26;;;;;;;4.17;1.35;;;;;;;16.58;50.45;100229.52;1807685;77;21061;-73
2021/05/21 06:51:53;;;;;;;10.07;2.17;;;;;;;16.68;51.02;100227.66;1817509;78;22205;-72
2021/05/21 06:54:20;;;;;;;4.67;1.80;;;;;;;16.85;51.04;100231.89;1804134;78;21033;-72
2021/05/21 06:56:48;;;;;;;12.03;3.23;;;;;;;17.06;50.88;100227.56;1798047;78;20974;-72
2021/05/21 06:59:14;;;;;;;13.77;3.50;;;;;;;17.22;50.85;100232.03;1790227;78;21733;-71
2021/05/21 07:01:42;;;;;;;14.70;2.90;;;;;;;17.32;50.58;100237.72;1796123;78;21073;-68
2021/05/21 07:04:09;;;;;;;12.57;3.67;;;;;;;17.43;50.50;100239.04;1799153;78;21065;-70
2021/05/21 07:06:36;;;;;;;10.53;2.47;;;;;;;17.52;50.03;100239.88;1794046;79;21104;-70
2021/05/21 07:09:04;;;;;;;11.00;3.07;;;;;;;17.55;49.84;100237.91;1798568;78;21053;-70
2021/05/21 07:11:32;;;;;;;11.40;2.83;;;;;;;17.59;49.57;100251.03;1798539;78;21037;-70
2021/05/21 07:13:59;;;;;;;11.20;2.97;;;;;;;17.63;49.25;100257.16;1783975;79;21033;-69
2021/05/21 07:16:27;;;;;;;7.17;2.20;;;;;;;17.60;48.96;100241.02;1812442;79;21096;-69
2021/05/21 07:18:56;;;;;;;10.30;2.80;;;;;;;17.55;49.63;100266.27;1812275;77;21121;-69
2021/05/21 07:21:22;;;;;;;10.73;2.63;;;;;;;17.53;49.30;100256.88;1773349;79;21138;-69
2021/05/21 07:23:53;;;;;;;8.47;2.10;;;;;;;17.49;49.06;100256.70;1794427;79;21704;-69
2021/05/21 07:26:18;;;;;;;9.27;3.00;;;;;;;17.42;50.25;100250.95;1772592;79;21021;-70
2021/05/21 07:28:44;;;;;;;7.67;2.83;;;;;;;17.44;50.21;100260.91;1796665;78;21071;-69
2021/05/21 07:31:12;;;;;;;6.80;2.63;;;;;;;17.51;49.17;100254.50;1759670;80;20964;-69
2021/05/21 07:33:39;;;;;;;5.53;1.90;;;;;;;17.55;49.62;100259.52;1805588;78;21042;-69
2021/05/21 07:36:07;;;;;;;3.60;1.77;;;;;;;17.62;50.16;100263.12;1791099;78;21148;-70
2021/05/21 07:38:36;;;;;;;3.87;1.80;;;;;;;17.65;50.20;100266.55;1797437;78;21024;-71
2021/05/21 07:41:03;;;;;;;4.13;1.77;;;;;;;17.67;50.61;100267.58;1797590;78;21056;-70
2021/05/21 07:43:30;;;;;;;3.23;1.43;;;;;;;17.67;50.49;100268.92;1802239;78;21107;-71
2021/05/21 07:45:57;;;;;;;3.87;2.00;;;;;;;17.72;49.76;100274.20;1801385;78;21110;-71
2021/05/21 07:48:26;;;;;;;6.10;1.70;;;;;;;17.75;49.85;100266.83;1811108;78;20964;-70
2021/05/21 07:50:53;;;;;;;2.73;1.40;;;;;;;17.78;49.07;100279.75;1807556;77;21185;-70
2021/05/21 07:53:21;;;;;;;2.20;1.50;;;;;;;17.84;48.94;100293.92;1797594;78;21125;-69
2021/05/21 07:55:48;;;;;;;3.97;1.40;;;;;;;17.89;48.47;100287.80;1794472;78;21089;-69
2021/05/21 07:58:15;;;;;;;2.90;1.40;;;;;;;17.92;48.20;100285.83;1778233;78;21144;-70
2021/05/21 08:00:43;;;;;;;3.67;1.43;;;;;;;17.95;48.09;100290.61;1796483;78;21081;-70
2021/05/21 08:03:10;;;;;;;2.13;1.30;;;;;;;17.91;46.65;100288.86;1796325;78;21116;-69
2021/05/21 08:05:38;;;;;;;4.30;1.30;;;;;;;17.85;46.96;100289.55;1793639;78;21112;-71
2021/05/21 08:08:05;;;;;;;2.77;1.07;;;;;;;17.83;47.45;100282.85;1808391;78;21159;-69
2021/05/21 08:10:31;;;;;;;1.70;0.70;;;;;;;17.91;47.13;100284.25;1798857;78;21099;-69
2021/05/21 08:13:03;;;;;;;6.83;1.37;;;;;;;18.05;45.66;100285.48;1797940;78;21589;-70
2021/05/21 08:15:30;;;;;;;2.50;1.10;;;;;;;18.15;45.31;100281.69;1804276;78;21059;-69
2021/05/21 08:17:57;;;;;;;1.17;0.80;;;;;;;18.24;44.00;100271.70;1796196;78;21551;-69
2021/05/21 08:20:24;;;;;;;1.30;0.80;;;;;;;18.27;43.94;100279.19;1798473;78;21174;-70
2021/05/21 08:22:52;;;;;;;2.57;0.90;;;;;;;18.31;43.22;100282.05;1795496;78;21043;-70
2021/05/21 08:25:19;;;;;;;1.33;0.73;;;;;;;18.27;43.32;100278.63;1799632;79;21058;-69
2021/05/21 08:27:46;;;;;;;1.33;1.00;;;;;;;18.22;43.85;100277.97;1797997;78;21095;-69
2021/05/21 08:30:15;;;;;;;3.27;1.17;;;;;;;18.15;43.92;100283.05;1799291;78;21176;-69
2021/05/21 08:32:42;;;;;;;2.30;1.07;;;;;;;18.10;44.04;100284.53;1796030;78;21129;-70
2021/05/21 08:35:09;;;;;;;3.13;1.27;;;;;;;18.05;43.92;100287.63;1799878;78;21097;-70
2021/05/21 08:37:37;;;;;;;4.67;1.47;;;;;;;18.00;44.25;100296.45;1799144;78;21074;-70
2021/05/21 08:40:07;;;;;;;1.97;1.10;;;;;;;18.00;44.34;100285.08;1792977;78;21065;-69
2021/05/21 08:42:41;;;;;;;3.12;1.10;;;;;;;18.01;44.51;100285.88;1797270;78;21706;-70
2021/05/21 08:45:13;;;;;;;;;;;;;;;18.04;44.29;100279.28;1804522;78;20966;-69
2021/05/21 08:47:40;;;;;;;1.95;1.32;;;;;;;17.99;44.71;100292.92;1796349;78;27037;-68
2021/05/21 08:50:09;;;;;;;2.20;1.20;;;;;;;18.02;44.82;100285.55;1799934;78;21065;-70
2021/05/21 08:52:36;;;;;;;3.93;1.37;;;;;;;18.10;44.83;100290.75;1799160;78;21085;-67
2021/05/21 08:55:05;;;;;;;4.17;1.70;;;;;;;18.19;45.27;100288.05;1804023;78;21060;-68
2021/05/21 08:57:32;;;;;;;2.70;1.57;;;;;;;18.30;45.66;100295.34;1802075;79;20998;-70
2021/05/21 08:59:59;;;;;;;2.50;1.27;;;;;;;18.38;45.37;100287.22;1796648;78;21369;-69
2021/05/21 09:02:28;;;;;;;4.00;1.60;;;;;;;18.39;45.61;100289.37;1796004;78;21105;-69
2021/05/21 09:04:57;;;;;;;3.40;1.90;;;;;;;18.38;45.66;100289.93;1796761;78;21081;-69
2021/05/21 09:07:35;;;;;;;4.03;1.90;;;;;;;18.46;46.17;100290.52;1794956;78;21077;-68
2021/05/21 09:10:15;;;;;;;5.47;2.10;;;;;;;18.60;45.79;100290.92;1791192;78;21041;-69
2021/05/21 09:12:46;;;;;;;3.03;1.53;;;;;;;18.59;45.15;100296.08;1790078;78;21109;-69
2021/05/21 09:15:17;;;;;;;3.63;1.57;;;;;;;18.65;45.57;100296.95;1798134;79;21073;-69
2021/05/21 09:17:59;;;;;;;2.92;1.50;;;;;;;18.83;45.23;100289.69;1796210;78;21073;-68
2021/05/21 09:20:41;;;;;;;4.90;1.40;;;;;;;19.02;45.09;100289.90;1794927;78;21143;-68
2021/05/21 09:23:12;;;;;;;2.73;1.53;;;;;;;19.16;44.60;100289.19;1793655;78;21117;-69
2021/05/21 09:25:53;;;;;;;2.60;1.50;;;;;;;19.13;43.51;100281.70;1799418;78;21583;-69
2021/05/21 09:28:41;;;;;;;2.53;1.53;;;;;;;19.10;44.10;100299.38;1795688;78;21583;-69
2021/05/21 09:31:14;;;;;;;2.23;1.33;;;;;;;19.22;43.47;100297.38;1798335;78;22005;-69
2021/05/21 09:33:45;;;;;;;4.63;2.20;;;;;;;19.29;43.28;100300.39;1793813;78;21120;-67
2021/05/21 09:36:11;;;;;;;3.53;1.80;;;;;;;19.40;42.99;100293.51;1808457;78;21069;-69
2021/05/21 09:38:51;;;;;;;3.87;1.60;;;;;;;19.51;42.81;100294.52;1796617;78;21113;-68
2021/05/21 09:41:17;;;;;;;3.50;1.40;;;;;;;19.54;42.93;100290.59;1796245;78;21067;-69
2021/05/21 09:43:56;;;;;;;6.97;3.50;;;;;;;19.59;42.37;100289.64;1794062;78;21630;-68
2021/05/21 09:46:23;;;;;;;3.37;1.63;;;;;;;19.54;42.50;100287.09;1774056;79;21091;-69
2021/05/21 09:48:51;;;;;;;4.07;1.60;;;;;;;19.60;43.27;100289.30;1793147;78;21160;-70
2021/05/21 09:51:22;;;;;;;2.13;1.20;;;;;;;19.76;41.92;100276.05;1795226;78;21112;-68
2021/05/21 09:53:47;;;;;;;3.60;1.60;;;;;;;19.74;41.05;100288.33;1774457;79;21394;-70
2021/05/21 09:56:20;;;;;;;3.43;1.53;;;;;;;19.62;41.65;100283.58;1795829;78;21489;-69
2021/05/21 09:58:47;;;;;;;2.23;1.20;;;;;;;19.55;42.36;100280.58;1798070;78;21211;-67
2021/05/21 10:01:23;;;;;;;2.80;1.27;;;;;;;19.47;41.43;100284.09;1789686;78;21056;-68
2021/05/21 10:03:56;;;;;;;2.37;1.30;;;;;;;19.39;40.71;100289.78;1796130;78;21052;-69
2021/05/21 10:06:25;;;;;;;2.97;1.20;;;;;;;19.32;40.10;100295.69;1811932;77;21076;-69
2021/05/21 10:08:58;;;;;;;1.73;1.10;;;;;;;19.33;39.43;100287.80;1776957;79;21032;-68
2021/05/21 10:11:25;;;;;;;2.27;1.30;;;;;;;19.36;39.67;100285.00;1769695;79;21181;-69
2021/05/21 10:13:53;;;;;;;2.50;1.40;;;;;;;19.37;40.54;100281.96;1794596;78;21124;-69
2021/05/21 10:16:21;;;;;;;2.07;1.00;;;;;;;19.45;39.29;100275.74;1797984;78;21097;-68
2021/05/21 10:18:49;;;;;;;2.30;1.10;;;;;;;19.48;38.49;100283.79;1798699;78;21146;-70
2021/05/21 10:21:18;;;;;;;5.80;1.73;;;;;;;19.57;37.77;100285.89;1798276;78;21021;-68
2021/05/21 10:23:54;;;;;;;2.30;1.20;;;;;;;19.70;37.91;100280.06;1794272;78;21654;-68
2021/05/21 10:26:33;;;;;;;4.53;1.70;;;;;;;19.86;37.99;100285.17;1789388;78;21033;-67
2021/05/21 10:29:08;;;;;;;1.80;1.00;;;;;;;20.02;38.57;100282.71;1797110;78;21045;-69
2021/05/21 10:31:35;;;;;;;1.80;1.10;;;;;;;20.21;38.21;100284.22;1792836;79;21039;-68
2021/05/21 10:34:17;;;;;;;2.57;1.00;;;;;;;20.30;37.58;100284.94;1795346;78;21041;-70
2021/05/21 10:37:32;;;;;;;1.80;0.90;;;;;;;20.33;37.79;100274.79;1813545;78;21099;-68
2021/05/21 10:40:24;;;;;;;3.23;1.33;;;;;;;20.24;36.28;100286.27;1763067;80;21095;-69
2021/05/21 10:43:22;;;;;;;17.43;4.33;;;;;;;20.20;35.52;100273.91;1791894;79;21065;-68
2021/05/21 10:45:55;;;;;;;2.50;1.20;;;;;;;20.24;36.18;100280.28;1754782;78;21052;-68
2021/05/21 10:48:27;;;;;;;;;;;;;;;20.31;35.47;100275.70;1810752;78;21056;-70
2021/05/21 10:51:12;;;;;;;2.80;1.00;;;;;;;20.33;36.36;100277.50;1799116;78;21071;-69
2021/05/21 10:53:42;;;;;;;2.40;1.10;;;;;;;20.38;34.97;100261.05;1770153;78;21662;-68
2021/05/21 10:56:10;;;;;;;1.90;0.90;;;;;;;20.31;34.18;100264.28;1795269;78;21088;-67
2021/05/21 10:58:44;;;;;;;2.33;1.03;;;;;;;20.25;33.59;100264.23;1791723;79;21137;-68
2021/05/21 11:01:26;;;;;;;3.37;1.03;;;;;;;20.22;34.18;100273.59;1789213;78;21054;-68
2021/05/21 11:04:02;;;;;;;3.53;1.13;;;;;;;20.24;33.75;100263.22;1773258;78;21092;-67
2021/05/21 11:06:31;;;;;;;2.17;1.10;;;;;;;20.17;33.58;100267.81;1793091;78;21223;-69
2021/05/21 11:09:12;;;;;;;1.37;0.78;;;;;;;20.14;33.64;100268.47;1796118;78;21095;-68
2021/05/21 11:11:54;;;;;;;2.47;1.13;;;;;;;20.16;34.13;100271.63;1798365;79;21129;-68
2021/05/21 11:14:33;;;;;;;1.73;0.90;;;;;;;20.22;33.76;100266.25;1797452;78;21077;-68
2021/05/21 11:17:16;;;;;;;3.60;1.20;;;;;;;20.19;33.30;100257.41;1791912;78;21205;-69
2021/05/21 11:19:50;;;;;;;1.73;1.17;;;;;;;20.19;34.84;100267.47;1798503;78;21150;-69
2021/05/21 11:22:30;;;;;;;1.90;1.00;;;;;;;20.24;36.16;100258.59;1797837;78;21088;-68
2021/05/21 11:25:01;;;;;;;3.83;1.20;;;;;;;20.37;35.86;100259.47;1796904;78;21170;-69
2021/05/21 11:27:31;;;;;;;1.50;0.82;;;;;;;20.51;35.21;100264.09;1795971;78;21092;-69
2021/05/21 11:29:58;;;;;;;1.93;1.03;;;;;;;20.66;34.15;100279.53;1796602;78;21073;-68
2021/05/21 11:32:26;;;;;;;3.27;1.50;;;;;;;20.59;33.02;100265.93;1798559;78;21077;-68